David M Fleming — WDE3731 — position and weather

sailwx.info

Track history (hours):
 
Tides and Currents Weather Stations Pressure Air Temp Water Temp Dewpoint Dewpoint Depression Visibility Wind Speed Wind Dir Waves Ship Positions

David M Fleming

Owner: ACL Transportation Services LLC, Jeffersonville, IN. More information available from US FCC via Universal Licensing System and Coast Guard Vessel Documentation Center.

Last reported at 2017-Sep-25 12:39 UTC. Time now 2017-Oct-22 23:08 UTC.
Position N 29°44' W 095°07'.
Warning: this ship's position is 27 days out of date.

Length 16 m; draft 2.5 m.

Type: Tug. MMSI: 367343420.

Date/timePositionNaut miles runAvg speedWind from/ knotsBaromVisibWave heightAir tempDewpointWater temp
2017-Sep-25 12:39N 29°44' W 095°07'1 0.0
2017-Sep-24 05:03N 29°45' W 095°06'1 5.1
2017-Sep-24 04:53N 29°46' W 095°05'12 0.2
2017-Sep-22 02:00N 29°46' W 095°20'1 2.9
2017-Sep-22 01:29N 29°45' W 095°18'2 4.6
2017-Sep-22 01:01N 29°44' W 095°16'8 2.6
2017-Sep-21 21:51N 29°44' W 095°07'2 4.7
2017-Sep-21 21:28N 29°44' W 095°09'4 4.2
2017-Sep-21 20:33N 29°43' W 095°13'2 4.4
2017-Sep-21 20:08N 29°44' W 095°15'1 3.5
2017-Sep-21 19:59N 29°44' W 095°16'6 0.4
2017-Sep-21 03:49N 29°44' W 095°09'0 0.1
2017-Sep-21 01:56N 29°44' W 095°09'2 0.1
2017-Sep-19 18:38N 29°45' W 095°06'1 0.0
2017-Sep-18 14:44N 29°45' W 095°06'3 0.1
2017-Sep-16 13:23N 29°44' W 095°09'  
Track history (hours):
 
Tides and Currents Weather Stations Pressure Air Temp Water Temp Dewpoint Dewpoint Depression Visibility Wind Speed Wind Dir Waves Ship Positions

David M Fleming

Owner: ACL Transportation Services LLC, Jeffersonville, IN. More information available from US FCC via Universal Licensing System and Coast Guard Vessel Documentation Center.

Last reported at 2017-Sep-25 12:39 UTC. Time now 2017-Oct-22 23:08 UTC.
Position N 29°44' W 095°07'.
Warning: this ship's position is 27 days out of date.

Length 16 m; draft 2.5 m.

Type: Tug. MMSI: 367343420.

Date/timePositionNaut miles runAvg speedWind from/ knotsBaromVisibWave heightAir tempDewpointWater temp
2017-Sep-25 12:39N 29°44' W 095°07'1 0.0
2017-Sep-24 05:03N 29°45' W 095°06'1 5.1
2017-Sep-24 04:53N 29°46' W 095°05'12 0.2
2017-Sep-22 02:00N 29°46' W 095°20'1 2.9
2017-Sep-22 01:29N 29°45' W 095°18'2 4.6
2017-Sep-22 01:01N 29°44' W 095°16'8 2.6
2017-Sep-21 21:51N 29°44' W 095°07'2 4.7
2017-Sep-21 21:28N 29°44' W 095°09'4 4.2
2017-Sep-21 20:33N 29°43' W 095°13'2 4.4
2017-Sep-21 20:08N 29°44' W 095°15'1 3.5
2017-Sep-21 19:59N 29°44' W 095°16'6 0.4
2017-Sep-21 03:49N 29°44' W 095°09'0 0.1
2017-Sep-21 01:56N 29°44' W 095°09'2 0.1
2017-Sep-19 18:38N 29°45' W 095°06'1 0.0
2017-Sep-18 14:44N 29°45' W 095°06'3 0.1
2017-Sep-16 13:23N 29°44' W 095°09'  

Dump ship's entire track history